PWSweather.com
Personal Weather Stations
Station Observations
KFLSEBAS1
Sebastian Highlands, Sebastian, FL 32958-4362

Sebastian HighlandsSebastian, FL 32958-4362

Lat: 27.8, Lon: -80.48

Elevation: 23

Station Type: Davis Weather Monitor II

Latest ConditionsUpdated 12:45:17 PM EDT Monday, Sep 23, 2019
Currently Today's Max Today's Min Today's Average
Temperature 83.8°F28.8°C 83.8°F28.8°C 78.0°F25.6°C 79.6°F26.4°C
Dew Point 69.4°F20.8°C 71.8°F22.1°C 66.5°F19.2°C 69.1°F20.6°C
Winds 6.0 mph NNE9.7 kmh NNE 11.0 mph -17.7 kmh - - 2.4 mph 3.9 kmh
Wind Gusts 14.0 mph22.5 kmh 17.0 mph27.4 kmh - -
Humidity 62% 78% 61% 71%
Pressure 30.07 in1018.3 mb 30.08 in1018.6 mb 30.01 in1016.3 mb -
Hour Temp Dew Point Humidity Winds Wind Gusts Pressure Precip Precip Rate Daily Precip Total
12:45 PM 83.8°F28.8°C 69.4°F20.8°C 62% 6.0 mph NNE9.7 kmh NNE 14.0 mph22.5 kmh 30.07 in1018.3 mb 0.00 in0.0 mm 0.00 in0.0 mm 0.00 in0.0 mm
12:40 PM 83.7°F28.7°C 70.7°F21.5°C 65% 7.0 mph NE11.3 kmh NE 13.0 mph20.9 kmh 30.07 in1018.3 mb 0.00 in0.0 mm 0.00 in0.0 mm 0.00 in0.0 mm
12:35 PM 83.5°F28.6°C 70.1°F21.2°C 64% Calm Calm 13.0 mph20.9 kmh 30.07 in1018.3 mb 0.00 in0.0 mm 0.00 in0.0 mm 0.00 in0.0 mm
12:30 PM 83.3°F28.5°C 69.4°F20.8°C 63% 5.0 mph NE8.0 kmh NE 13.0 mph20.9 kmh 30.07 in1018.3 mb 0.00 in0.0 mm 0.00 in0.0 mm 0.00 in0.0 mm
12:25 PM 83.2°F28.4°C 69.3°F20.7°C 63% Calm Calm 13.0 mph20.9 kmh 30.07 in1018.3 mb 0.00 in0.0 mm 0.00 in0.0 mm 0.00 in0.0 mm
12:20 PM 83.5°F28.6°C 70.1°F21.2°C 64% 5.0 mph ENE8.0 kmh ENE 13.0 mph20.9 kmh 30.07 in1018.3 mb 0.00 in0.0 mm 0.00 in0.0 mm 0.00 in0.0 mm
12:15 PM 83.4°F28.6°C 69.0°F20.6°C 62% 4.0 mph NE6.4 kmh NE 13.0 mph20.9 kmh 30.07 in1018.3 mb 0.00 in0.0 mm 0.00 in0.0 mm 0.00 in0.0 mm
12:10 PM 83.4°F28.6°C 69.0°F20.6°C 62% Calm Calm 13.0 mph20.9 kmh 30.07 in1018.3 mb 0.00 in0.0 mm 0.00 in0.0 mm 0.00 in0.0 mm
12:05 PM 83.2°F28.4°C 68.4°F20.2°C 61% 5.0 mph NE8.0 kmh NE 13.0 mph20.9 kmh 30.07 in1018.3 mb 0.00 in0.0 mm 0.00 in0.0 mm 0.00 in0.0 mm
12:00 PM 83.3°F28.5°C 68.9°F20.5°C 62% Calm Calm 1.0 mph1.6 kmh 30.07 in1018.3 mb 0.00 in0.0 mm 0.00 in0.0 mm 0.00 in0.0 mm
11:55 AM 83.2°F28.4°C 68.8°F20.4°C 62% Calm Calm 17.0 mph27.4 kmh 30.07 in1018.3 mb 0.00 in0.0 mm 0.00 in0.0 mm 0.00 in0.0 mm
11:50 AM 83.2°F28.4°C 69.8°F21.0°C 64% 9.0 mph NE14.5 kmh NE 17.0 mph27.4 kmh 30.08 in1018.6 mb 0.00 in0.0 mm 0.00 in0.0 mm 0.00 in0.0 mm
11:45 AM 83.3°F28.5°C 69.9°F21.1°C 64% 7.0 mph NE11.3 kmh NE 17.0 mph27.4 kmh 30.08 in1018.6 mb 0.00 in0.0 mm 0.00 in0.0 mm 0.00 in0.0 mm
11:40 AM 83.2°F28.4°C 70.2°F21.2°C 65% Calm Calm 17.0 mph27.4 kmh 30.07 in1018.3 mb 0.00 in0.0 mm 0.00 in0.0 mm 0.00 in0.0 mm
11:35 AM 82.9°F28.3°C 69.9°F21.1°C 65% 5.0 mph NE8.0 kmh NE 17.0 mph27.4 kmh 30.08 in1018.6 mb 0.00 in0.0 mm 0.00 in0.0 mm 0.00 in0.0 mm
11:30 AM 82.8°F28.2°C 70.3°F21.3°C 66% Calm Calm 17.0 mph27.4 kmh 30.08 in1018.6 mb 0.00 in0.0 mm 0.00 in0.0 mm 0.00 in0.0 mm
11:25 AM 82.9°F28.3°C 70.4°F21.3°C 66% 1.0 mph NE1.6 kmh NE 17.0 mph27.4 kmh 30.08 in1018.6 mb 0.00 in0.0 mm 0.00 in0.0 mm 0.00 in0.0 mm
11:20 AM 82.8°F28.2°C 70.3°F21.3°C 66% Calm Calm 17.0 mph27.4 kmh 30.08 in1018.6 mb 0.00 in0.0 mm 0.00 in0.0 mm 0.00 in0.0 mm
11:15 AM 82.7°F28.2°C 70.2°F21.2°C 66% 5.0 mph NNE8.0 kmh NNE 17.0 mph27.4 kmh 30.07 in1018.3 mb 0.00 in0.0 mm 0.00 in0.0 mm 0.00 in0.0 mm
11:10 AM 82.9°F28.3°C 69.5°F20.8°C 64% 6.0 mph NE9.7 kmh NE 17.0 mph27.4 kmh 30.07 in1018.3 mb 0.00 in0.0 mm 0.00 in0.0 mm 0.00 in0.0 mm
11:05 AM 82.9°F28.3°C 69.0°F20.6°C 63% 6.0 mph N9.7 kmh N 10.0 mph16.1 kmh 30.07 in1018.3 mb 0.00 in0.0 mm 0.00 in0.0 mm 0.00 in0.0 mm
11:00 AM 82.8°F28.2°C 68.9°F20.5°C 63% Calm Calm -- 30.07 in1018.3 mb 0.00 in0.0 mm 0.00 in0.0 mm 0.00 in0.0 mm
10:55 AM 82.8°F28.2°C 68.9°F20.5°C 63% 6.0 mph NNE9.7 kmh NNE 13.0 mph20.9 kmh 30.08 in1018.6 mb 0.00 in0.0 mm 0.00 in0.0 mm 0.00 in0.0 mm
10:50 AM 82.7°F28.2°C 69.3°F20.7°C 64% 8.0 mph NE12.9 kmh NE 13.0 mph20.9 kmh 30.08 in1018.6 mb 0.00 in0.0 mm 0.00 in0.0 mm 0.00 in0.0 mm
10:45 AM 82.5°F28.1°C 68.6°F20.3°C 63% Calm Calm 13.0 mph20.9 kmh 30.07 in1018.3 mb 0.00 in0.0 mm 0.00 in0.0 mm 0.00 in0.0 mm
10:40 AM 82.5°F28.1°C 67.7°F19.8°C 61% 3.0 mph NE4.8 kmh NE 13.0 mph20.9 kmh 30.08 in1018.6 mb 0.00 in0.0 mm 0.00 in0.0 mm 0.00 in0.0 mm
10:35 AM 82.4°F28.0°C 68.1°F20.1°C 62% Calm Calm 13.0 mph20.9 kmh 30.07 in1018.3 mb 0.00 in0.0 mm 0.00 in0.0 mm 0.00 in0.0 mm
10:30 AM 82.1°F27.8°C 67.8°F19.9°C 62% Calm Calm 13.0 mph20.9 kmh 30.07 in1018.3 mb 0.00 in0.0 mm 0.00 in0.0 mm 0.00 in0.0 mm
10:25 AM 82.0°F27.8°C 68.2°F20.1°C 63% 2.0 mph NE3.2 kmh NE 13.0 mph20.9 kmh 30.07 in1018.3 mb 0.00 in0.0 mm 0.00 in0.0 mm 0.00 in0.0 mm
10:20 AM 81.9°F27.7°C 69.0°F20.6°C 65% Calm Calm 13.0 mph20.9 kmh 30.07 in1018.3 mb 0.00 in0.0 mm 0.00 in0.0 mm 0.00 in0.0 mm
10:15 AM 81.8°F27.7°C 69.8°F21.0°C 67% 7.0 mph NNE11.3 kmh NNE 13.0 mph20.9 kmh 30.07 in1018.3 mb 0.00 in0.0 mm 0.00 in0.0 mm 0.00 in0.0 mm
10:10 AM 81.5°F27.5°C 69.1°F20.6°C 66% Calm Calm 13.0 mph20.9 kmh 30.07 in1018.3 mb 0.00 in0.0 mm 0.00 in0.0 mm 0.00 in0.0 mm
10:05 AM 81.3°F27.4°C 68.4°F20.2°C 65% 5.0 mph NE8.0 kmh NE 13.0 mph20.9 kmh 30.06 in1017.9 mb 0.00 in0.0 mm 0.00 in0.0 mm 0.00 in0.0 mm
10:00 AM 81.2°F27.3°C 70.5°F21.4°C 70% Calm Calm 3.0 mph4.8 kmh 30.06 in1017.9 mb 0.00 in0.0 mm 0.00 in0.0 mm 0.00 in0.0 mm
09:55 AM 81.1°F27.3°C 68.7°F20.4°C 66% 1.0 mph NE1.6 kmh NE 16.0 mph25.7 kmh 30.07 in1018.3 mb 0.00 in0.0 mm 0.00 in0.0 mm 0.00 in0.0 mm
09:50 AM 81.1°F27.3°C 68.2°F20.1°C 65% 4.0 mph NE6.4 kmh NE 16.0 mph25.7 kmh 30.07 in1018.3 mb 0.00 in0.0 mm 0.00 in0.0 mm 0.00 in0.0 mm
09:45 AM 81.0°F27.2°C 69.0°F20.6°C 67% Calm Calm 12.0 mph19.3 kmh 30.07 in1018.3 mb 0.00 in0.0 mm 0.00 in0.0 mm 0.00 in0.0 mm
09:40 AM 80.8°F27.1°C 69.3°F20.7°C 68% 5.0 mph NE8.0 kmh NE 11.0 mph17.7 kmh 30.06 in1017.9 mb 0.00 in0.0 mm 0.00 in0.0 mm 0.00 in0.0 mm
09:35 AM 80.5°F26.9°C 68.5°F20.3°C 67% Calm Calm 11.0 mph17.7 kmh 30.06 in1017.9 mb 0.00 in0.0 mm 0.00 in0.0 mm 0.00 in0.0 mm
09:30 AM 80.4°F26.9°C 68.9°F20.5°C 68% 3.0 mph NNE4.8 kmh NNE 11.0 mph17.7 kmh 30.06 in1017.9 mb 0.00 in0.0 mm 0.00 in0.0 mm 0.00 in0.0 mm
09:25 AM 80.3°F26.8°C 69.2°F20.7°C 69% Calm Calm 11.0 mph17.7 kmh 30.06 in1017.9 mb 0.00 in0.0 mm 0.00 in0.0 mm 0.00 in0.0 mm
09:20 AM 80.0°F26.7°C 68.9°F20.5°C 69% Calm Calm 11.0 mph17.7 kmh 30.06 in1017.9 mb 0.00 in0.0 mm 0.00 in0.0 mm 0.00 in0.0 mm
09:15 AM 79.8°F26.6°C 69.2°F20.7°C 70% 3.0 mph NNE4.8 kmh NNE 11.0 mph17.7 kmh 30.06 in1017.9 mb 0.00 in0.0 mm 0.00 in0.0 mm 0.00 in0.0 mm
09:10 AM 79.7°F26.5°C 69.5°F20.8°C 71% 4.0 mph N6.4 kmh N 11.0 mph17.7 kmh 30.06 in1017.9 mb 0.00 in0.0 mm 0.00 in0.0 mm 0.00 in0.0 mm
09:05 AM 79.5°F26.4°C 69.3°F20.7°C 71% 3.0 mph NE4.8 kmh NE 11.0 mph17.7 kmh 30.06 in1017.9 mb 0.00 in0.0 mm 0.00 in0.0 mm 0.00 in0.0 mm
09:00 AM 79.4°F26.3°C 70.0°F21.1°C 73% 4.0 mph NE6.4 kmh NE 4.0 mph6.4 kmh 30.05 in1017.6 mb 0.00 in0.0 mm 0.00 in0.0 mm 0.00 in0.0 mm
08:55 AM 79.2°F26.2°C 69.8°F21.0°C 73% Calm Calm 10.0 mph16.1 kmh 30.06 in1017.9 mb 0.00 in0.0 mm 0.00 in0.0 mm 0.00 in0.0 mm
08:50 AM 79.3°F26.3°C 69.5°F20.8°C 72% Calm Calm 10.0 mph16.1 kmh 30.06 in1017.9 mb 0.00 in0.0 mm 0.00 in0.0 mm 0.00 in0.0 mm
08:45 AM 79.5°F26.4°C 69.7°F20.9°C 72% 8.0 mph NE12.9 kmh NE 10.0 mph16.1 kmh 30.06 in1017.9 mb 0.00 in0.0 mm 0.00 in0.0 mm 0.00 in0.0 mm
08:40 AM 79.5°F26.4°C 69.3°F20.7°C 71% Calm Calm 10.0 mph16.1 kmh 30.05 in1017.6 mb 0.00 in0.0 mm 0.00 in0.0 mm 0.00 in0.0 mm
08:35 AM 79.5°F26.4°C 69.3°F20.7°C 71% 6.0 mph N9.7 kmh N 10.0 mph16.1 kmh 30.05 in1017.6 mb 0.00 in0.0 mm 0.00 in0.0 mm 0.00 in0.0 mm
08:30 AM 79.3°F26.3°C 69.5°F20.8°C 72% 6.0 mph NE9.7 kmh NE 10.0 mph16.1 kmh 30.05 in1017.6 mb 0.00 in0.0 mm 0.00 in0.0 mm 0.00 in0.0 mm
08:25 AM 79.0°F26.1°C 69.2°F20.7°C 72% Calm Calm 10.0 mph16.1 kmh 30.05 in1017.6 mb 0.00 in0.0 mm 0.00 in0.0 mm 0.00 in0.0 mm
08:20 AM 78.8°F26.0°C 68.6°F20.3°C 71% 3.0 mph NE4.8 kmh NE 10.0 mph16.1 kmh 30.05 in1017.6 mb 0.00 in0.0 mm 0.00 in0.0 mm 0.00 in0.0 mm
08:15 AM 78.6°F25.9°C 68.4°F20.2°C 71% Calm Calm 10.0 mph16.1 kmh 30.04 in1017.3 mb 0.00 in0.0 mm 0.00 in0.0 mm 0.00 in0.0 mm
08:10 AM 78.4°F25.8°C 68.2°F20.1°C 71% Calm Calm 4.0 mph6.4 kmh 30.04 in1017.3 mb 0.00 in0.0 mm 0.00 in0.0 mm 0.00 in0.0 mm
08:05 AM 78.4°F25.8°C 68.2°F20.1°C 71% Calm Calm 4.0 mph6.4 kmh 30.04 in1017.3 mb 0.00 in0.0 mm 0.00 in0.0 mm 0.00 in0.0 mm
08:00 AM 78.4°F25.8°C 68.2°F20.1°C 71% Calm Calm -- 30.04 in1017.3 mb 0.00 in0.0 mm 0.00 in0.0 mm 0.00 in0.0 mm
07:55 AM 78.4°F25.8°C 67.8°F19.9°C 70% Calm Calm 10.0 mph16.1 kmh 30.04 in1017.3 mb 0.00 in0.0 mm 0.00 in0.0 mm 0.00 in0.0 mm
07:50 AM 78.4°F25.8°C 67.4°F19.7°C 69% Calm Calm 10.0 mph16.1 kmh 30.04 in1017.3 mb 0.00 in0.0 mm 0.00 in0.0 mm 0.00 in0.0 mm
07:45 AM 78.3°F25.7°C 66.5°F19.2°C 67% 5.0 mph NE8.0 kmh NE 10.0 mph16.1 kmh 30.03 in1016.9 mb 0.00 in0.0 mm 0.00 in0.0 mm 0.00 in0.0 mm
07:40 AM 78.3°F25.7°C 66.5°F19.2°C 67% Calm Calm 10.0 mph16.1 kmh 30.03 in1016.9 mb 0.00 in0.0 mm 0.00 in0.0 mm 0.00 in0.0 mm
07:35 AM 78.3°F25.7°C 66.9°F19.4°C 68% 6.0 mph NE9.7 kmh NE 10.0 mph16.1 kmh 30.04 in1017.3 mb 0.00 in0.0 mm 0.00 in0.0 mm 0.00 in0.0 mm
07:30 AM 78.3°F25.7°C 67.3°F19.6°C 69% Calm Calm 8.0 mph12.9 kmh 30.04 in1017.3 mb 0.00 in0.0 mm 0.00 in0.0 mm 0.00 in0.0 mm
07:25 AM 78.3°F25.7°C 66.9°F19.4°C 68% Calm Calm 8.0 mph12.9 kmh 30.04 in1017.3 mb 0.00 in0.0 mm 0.00 in0.0 mm 0.00 in0.0 mm
07:20 AM 78.2°F25.7°C 67.2°F19.6°C 69% Calm Calm 8.0 mph12.9 kmh 30.02 in1016.6 mb 0.00 in0.0 mm 0.00 in0.0 mm 0.00 in0.0 mm
07:15 AM 78.1°F25.6°C 67.5°F19.7°C 70% 2.0 mph E3.2 kmh E 8.0 mph12.9 kmh 30.03 in1016.9 mb 0.00 in0.0 mm 0.00 in0.0 mm 0.00 in0.0 mm
07:10 AM 78.1°F25.6°C 67.9°F19.9°C 71% Calm Calm 8.0 mph12.9 kmh 30.02 in1016.6 mb 0.00 in0.0 mm 0.00 in0.0 mm 0.00 in0.0 mm
07:05 AM 78.1°F25.6°C 67.5°F19.7°C 70% Calm Calm 8.0 mph12.9 kmh 30.03 in1016.9 mb 0.00 in0.0 mm 0.00 in0.0 mm 0.00 in0.0 mm
07:00 AM 78.1°F25.6°C 67.5°F19.7°C 70% Calm Calm 2.0 mph3.2 kmh 30.03 in1016.9 mb 0.00 in0.0 mm 0.00 in0.0 mm 0.00 in0.0 mm
06:55 AM 78.2°F25.7°C 68.0°F20.0°C 71% Calm Calm 13.0 mph20.9 kmh 30.02 in1016.6 mb 0.00 in0.0 mm 0.00 in0.0 mm 0.00 in0.0 mm
06:50 AM 78.2°F25.7°C 67.6°F19.8°C 70% 5.0 mph NE8.0 kmh NE 13.0 mph20.9 kmh 30.03 in1016.9 mb 0.00 in0.0 mm 0.00 in0.0 mm 0.00 in0.0 mm
06:45 AM 78.3°F25.7°C 67.7°F19.8°C 70% Calm Calm 13.0 mph20.9 kmh 30.02 in1016.6 mb 0.00 in0.0 mm 0.00 in0.0 mm 0.00 in0.0 mm
06:40 AM 78.4°F25.8°C 68.2°F20.1°C 71% 3.0 mph ENE4.8 kmh ENE 13.0 mph20.9 kmh 30.03 in1016.9 mb 0.00 in0.0 mm 0.00 in0.0 mm 0.00 in0.0 mm
06:35 AM 78.4°F25.8°C 68.2°F20.1°C 71% 2.0 mph NE3.2 kmh NE 13.0 mph20.9 kmh 30.03 in1016.9 mb 0.00 in0.0 mm 0.00 in0.0 mm 0.00 in0.0 mm
06:30 AM 78.4°F25.8°C 68.2°F20.1°C 71% Calm Calm 13.0 mph20.9 kmh 30.03 in1016.9 mb 0.00 in0.0 mm 0.00 in0.0 mm 0.00 in0.0 mm
06:25 AM 78.4°F25.8°C 68.2°F20.1°C 71% 2.0 mph NE3.2 kmh NE 13.0 mph20.9 kmh 30.02 in1016.6 mb 0.00 in0.0 mm 0.00 in0.0 mm 0.00 in0.0 mm
06:20 AM 78.4°F25.8°C 68.6°F20.3°C 72% Calm Calm 13.0 mph20.9 kmh 30.02 in1016.6 mb 0.00 in0.0 mm 0.00 in0.0 mm 0.00 in0.0 mm
06:15 AM 78.5°F25.8°C 68.7°F20.4°C 72% 4.0 mph E6.4 kmh E 13.0 mph20.9 kmh 30.02 in1016.6 mb 0.00 in0.0 mm 0.00 in0.0 mm 0.00 in0.0 mm
06:10 AM 78.5°F25.8°C 69.1°F20.6°C 73% 5.0 mph NE8.0 kmh NE 13.0 mph20.9 kmh 30.02 in1016.6 mb 0.00 in0.0 mm 0.00 in0.0 mm 0.00 in0.0 mm
06:05 AM 78.4°F25.8°C 69.0°F20.6°C 73% 2.0 mph NE3.2 kmh NE 11.0 mph17.7 kmh 30.01 in1016.3 mb 0.00 in0.0 mm 0.00 in0.0 mm 0.00 in0.0 mm
06:00 AM 78.5°F25.8°C 69.5°F20.8°C 74% Calm Calm 3.0 mph4.8 kmh 30.02 in1016.6 mb 0.00 in0.0 mm 0.00 in0.0 mm 0.00 in0.0 mm
05:55 AM 78.3°F25.7°C 69.3°F20.7°C 74% 6.0 mph NE9.7 kmh NE 10.0 mph16.1 kmh 30.01 in1016.3 mb 0.00 in0.0 mm 0.00 in0.0 mm 0.00 in0.0 mm
05:50 AM 78.4°F25.8°C 69.4°F20.8°C 74% Calm Calm 10.0 mph16.1 kmh 30.02 in1016.6 mb 0.00 in0.0 mm 0.00 in0.0 mm 0.00 in0.0 mm
05:45 AM 78.3°F25.7°C 68.9°F20.5°C 73% Calm Calm 10.0 mph16.1 kmh 30.01 in1016.3 mb 0.00 in0.0 mm 0.00 in0.0 mm 0.00 in0.0 mm
05:40 AM 78.4°F25.8°C 69.4°F20.8°C 74% Calm Calm 10.0 mph16.1 kmh 30.01 in1016.3 mb 0.00 in0.0 mm 0.00 in0.0 mm 0.00 in0.0 mm
05:35 AM 78.2°F25.7°C 68.8°F20.4°C 73% Calm Calm 10.0 mph16.1 kmh 30.01 in1016.3 mb 0.00 in0.0 mm 0.00 in0.0 mm 0.00 in0.0 mm
05:30 AM 78.2°F25.7°C 68.8°F20.4°C 73% 7.0 mph NE11.3 kmh NE 10.0 mph16.1 kmh 30.01 in1016.3 mb 0.00 in0.0 mm 0.00 in0.0 mm 0.00 in0.0 mm
05:25 AM 78.2°F25.7°C 69.2°F20.7°C 74% 6.0 mph ENE9.7 kmh ENE 10.0 mph16.1 kmh 30.01 in1016.3 mb 0.00 in0.0 mm 0.00 in0.0 mm 0.00 in0.0 mm
05:20 AM 78.2°F25.7°C 69.6°F20.9°C 75% 4.0 mph NE6.4 kmh NE 10.0 mph16.1 kmh 30.01 in1016.3 mb 0.00 in0.0 mm 0.00 in0.0 mm 0.00 in0.0 mm
05:15 AM 78.2°F25.7°C 69.6°F20.9°C 75% Calm Calm 10.0 mph16.1 kmh 30.01 in1016.3 mb 0.00 in0.0 mm 0.00 in0.0 mm 0.00 in0.0 mm
05:10 AM 78.1°F25.6°C 69.9°F21.1°C 76% Calm Calm 8.0 mph12.9 kmh 30.01 in1016.3 mb 0.00 in0.0 mm 0.00 in0.0 mm 0.00 in0.0 mm
05:05 AM 78.0°F25.6°C 69.4°F20.8°C 75% 2.0 mph NNE3.2 kmh NNE 7.0 mph11.3 kmh 30.01 in1016.3 mb 0.00 in0.0 mm 0.00 in0.0 mm 0.00 in0.0 mm
05:00 AM 78.1°F25.6°C 69.5°F20.8°C 75% Calm Calm -- 30.01 in1016.3 mb 0.00 in0.0 mm 0.00 in0.0 mm 0.00 in0.0 mm
04:55 AM 78.2°F25.7°C 70.4°F21.3°C 77% 4.0 mph NE6.4 kmh NE 10.0 mph16.1 kmh 30.01 in1016.3 mb 0.00 in0.0 mm 0.00 in0.0 mm 0.00 in0.0 mm
04:50 AM 78.3°F25.7°C 70.5°F21.4°C 77% Calm Calm 9.0 mph14.5 kmh 30.01 in1016.3 mb 0.00 in0.0 mm 0.00 in0.0 mm 0.00 in0.0 mm
04:45 AM 78.4°F25.8°C 70.2°F21.2°C 76% 7.0 mph NE11.3 kmh NE 9.0 mph14.5 kmh 30.01 in1016.3 mb 0.00 in0.0 mm 0.00 in0.0 mm 0.00 in0.0 mm
04:40 AM 78.3°F25.7°C 70.5°F21.4°C 77% 7.0 mph NE11.3 kmh NE 9.0 mph14.5 kmh 30.01 in1016.3 mb 0.00 in0.0 mm 0.00 in0.0 mm 0.00 in0.0 mm
04:35 AM 78.3°F25.7°C 70.5°F21.4°C 77% 3.0 mph NE4.8 kmh NE 9.0 mph14.5 kmh 30.01 in1016.3 mb 0.00 in0.0 mm 0.00 in0.0 mm 0.00 in0.0 mm
04:30 AM 78.2°F25.7°C 70.4°F21.3°C 77% 3.0 mph NE4.8 kmh NE 9.0 mph14.5 kmh 30.02 in1016.6 mb 0.00 in0.0 mm 0.00 in0.0 mm 0.00 in0.0 mm
04:25 AM 78.1°F25.6°C 70.3°F21.3°C 77% 4.0 mph NNE6.4 kmh NNE 8.0 mph12.9 kmh 30.02 in1016.6 mb 0.00 in0.0 mm 0.00 in0.0 mm 0.00 in0.0 mm
04:20 AM 78.1°F25.6°C 69.9°F21.1°C 76% Calm Calm 8.0 mph12.9 kmh 30.02 in1016.6 mb 0.00 in0.0 mm 0.00 in0.0 mm 0.00 in0.0 mm
04:15 AM 78.1°F25.6°C 69.9°F21.1°C 76% Calm Calm 7.0 mph11.3 kmh 30.02 in1016.6 mb 0.00 in0.0 mm 0.00 in0.0 mm 0.00 in0.0 mm
04:10 AM 78.0°F25.6°C 69.4°F20.8°C 75% Calm Calm 7.0 mph11.3 kmh 30.02 in1016.6 mb 0.00 in0.0 mm 0.00 in0.0 mm 0.00 in0.0 mm
04:05 AM 78.0°F25.6°C 69.4°F20.8°C 75% 7.0 mph NE11.3 kmh NE 7.0 mph11.3 kmh 30.02 in1016.6 mb 0.00 in0.0 mm 0.00 in0.0 mm 0.00 in0.0 mm
04:00 AM 78.0°F25.6°C 69.1°F20.6°C 74% 4.0 mph NNE6.4 kmh NNE 4.0 mph6.4 kmh 30.03 in1016.9 mb 0.00 in0.0 mm 0.00 in0.0 mm 0.00 in0.0 mm
03:55 AM 78.0°F25.6°C 69.1°F20.6°C 74% 2.0 mph NE3.2 kmh NE 12.0 mph19.3 kmh 30.02 in1016.6 mb 0.00 in0.0 mm 0.00 in0.0 mm 0.00 in0.0 mm
03:50 AM 78.1°F25.6°C 69.5°F20.8°C 75% 6.0 mph N9.7 kmh N 12.0 mph19.3 kmh 30.02 in1016.6 mb 0.00 in0.0 mm 0.00 in0.0 mm 0.00 in0.0 mm
03:45 AM 78.1°F25.6°C 69.5°F20.8°C 75% 1.0 mph NE1.6 kmh NE 12.0 mph19.3 kmh 30.03 in1016.9 mb 0.00 in0.0 mm 0.00 in0.0 mm 0.00 in0.0 mm
03:40 AM 78.1°F25.6°C 69.1°F20.6°C 74% Calm Calm 12.0 mph19.3 kmh 30.02 in1016.6 mb 0.00 in0.0 mm 0.00 in0.0 mm 0.00 in0.0 mm
03:35 AM 78.1°F25.6°C 68.8°F20.4°C 73% 3.0 mph NNE4.8 kmh NNE 12.0 mph19.3 kmh 30.02 in1016.6 mb 0.00 in0.0 mm 0.00 in0.0 mm 0.00 in0.0 mm
03:30 AM 78.1°F25.6°C 68.8°F20.4°C 73% 1.0 mph NNE1.6 kmh NNE 12.0 mph19.3 kmh 30.03 in1016.9 mb 0.00 in0.0 mm 0.00 in0.0 mm 0.00 in0.0 mm
03:25 AM 78.2°F25.7°C 68.8°F20.4°C 73% 5.0 mph ENE8.0 kmh ENE 12.0 mph19.3 kmh 30.03 in1016.9 mb 0.00 in0.0 mm 0.00 in0.0 mm 0.00 in0.0 mm
03:20 AM 78.1°F25.6°C 69.1°F20.6°C 74% 5.0 mph NE8.0 kmh NE 12.0 mph19.3 kmh 30.02 in1016.6 mb 0.00 in0.0 mm 0.00 in0.0 mm 0.00 in0.0 mm
03:15 AM 78.1°F25.6°C 68.8°F20.4°C 73% Calm Calm 8.0 mph12.9 kmh 30.03 in1016.9 mb 0.00 in0.0 mm 0.00 in0.0 mm 0.00 in0.0 mm
03:10 AM 78.1°F25.6°C 68.8°F20.4°C 73% 3.0 mph NE4.8 kmh NE 8.0 mph12.9 kmh 30.03 in1016.9 mb 0.00 in0.0 mm 0.00 in0.0 mm 0.00 in0.0 mm
03:05 AM 78.1°F25.6°C 69.1°F20.6°C 74% Calm Calm 6.0 mph9.7 kmh 30.03 in1016.9 mb 0.00 in0.0 mm 0.00 in0.0 mm 0.00 in0.0 mm
03:00 AM 78.2°F25.7°C 68.8°F20.4°C 73% 4.0 mph NE6.4 kmh NE 6.0 mph9.7 kmh 30.04 in1017.3 mb 0.00 in0.0 mm 0.00 in0.0 mm 0.00 in0.0 mm
02:55 AM 78.2°F25.7°C 68.8°F20.4°C 73% 2.0 mph NE3.2 kmh NE 10.0 mph16.1 kmh 30.04 in1017.3 mb 0.00 in0.0 mm 0.00 in0.0 mm 0.00 in0.0 mm
02:50 AM 78.2°F25.7°C 68.8°F20.4°C 73% Calm Calm 10.0 mph16.1 kmh 30.04 in1017.3 mb 0.00 in0.0 mm 0.00 in0.0 mm 0.00 in0.0 mm
02:45 AM 78.2°F25.7°C 68.8°F20.4°C 73% Calm Calm 10.0 mph16.1 kmh 30.04 in1017.3 mb 0.00 in0.0 mm 0.00 in0.0 mm 0.00 in0.0 mm
02:40 AM 78.2°F25.7°C 69.2°F20.7°C 74% 3.0 mph NE4.8 kmh NE 10.0 mph16.1 kmh 30.04 in1017.3 mb 0.00 in0.0 mm 0.00 in0.0 mm 0.00 in0.0 mm
02:35 AM 78.3°F25.7°C 69.3°F20.7°C 74% 3.0 mph NNE4.8 kmh NNE 10.0 mph16.1 kmh 30.04 in1017.3 mb 0.00 in0.0 mm 0.00 in0.0 mm 0.00 in0.0 mm
02:30 AM 78.4°F25.8°C 69.0°F20.6°C 73% 1.0 mph NE1.6 kmh NE 10.0 mph16.1 kmh 30.05 in1017.6 mb 0.00 in0.0 mm 0.00 in0.0 mm 0.00 in0.0 mm
02:25 AM 78.4°F25.8°C 68.6°F20.3°C 72% 1.0 mph ENE1.6 kmh ENE 10.0 mph16.1 kmh 30.05 in1017.6 mb 0.00 in0.0 mm 0.00 in0.0 mm 0.00 in0.0 mm
02:20 AM 78.4°F25.8°C 68.2°F20.1°C 71% 2.0 mph NE3.2 kmh NE 10.0 mph16.1 kmh 30.05 in1017.6 mb 0.00 in0.0 mm 0.00 in0.0 mm 0.00 in0.0 mm
02:15 AM 78.4°F25.8°C 68.2°F20.1°C 71% Calm Calm 10.0 mph16.1 kmh 30.05 in1017.6 mb 0.00 in0.0 mm 0.00 in0.0 mm 0.00 in0.0 mm
02:10 AM 78.4°F25.8°C 68.6°F20.3°C 72% Calm Calm 9.0 mph14.5 kmh 30.05 in1017.6 mb 0.00 in0.0 mm 0.00 in0.0 mm 0.00 in0.0 mm
02:05 AM 78.5°F25.8°C 68.3°F20.2°C 71% 3.0 mph NE4.8 kmh NE 6.0 mph9.7 kmh 30.05 in1017.6 mb 0.00 in0.0 mm 0.00 in0.0 mm 0.00 in0.0 mm
02:00 AM 78.6°F25.9°C 68.4°F20.2°C 71% Calm Calm -- 30.06 in1017.9 mb 0.00 in0.0 mm 0.00 in0.0 mm 0.00 in0.0 mm
01:55 AM 78.7°F25.9°C 68.5°F20.3°C 71% Calm Calm 13.0 mph20.9 kmh 30.06 in1017.9 mb 0.00 in0.0 mm 0.00 in0.0 mm 0.00 in0.0 mm
01:50 AM 78.7°F25.9°C 68.5°F20.3°C 71% 6.0 mph NE9.7 kmh NE 13.0 mph20.9 kmh 30.06 in1017.9 mb 0.00 in0.0 mm 0.00 in0.0 mm 0.00 in0.0 mm
01:45 AM 78.8°F26.0°C 68.6°F20.3°C 71% 1.0 mph NNE1.6 kmh NNE 13.0 mph20.9 kmh 30.06 in1017.9 mb 0.00 in0.0 mm 0.00 in0.0 mm 0.00 in0.0 mm
01:40 AM 78.7°F25.9°C 68.5°F20.3°C 71% 6.0 mph NE9.7 kmh NE 13.0 mph20.9 kmh 30.06 in1017.9 mb 0.00 in0.0 mm 0.00 in0.0 mm 0.00 in0.0 mm
01:35 AM 78.7°F25.9°C 68.9°F20.5°C 72% Calm Calm 13.0 mph20.9 kmh 30.07 in1018.3 mb 0.00 in0.0 mm 0.00 in0.0 mm 0.00 in0.0 mm
01:30 AM 78.8°F26.0°C 69.4°F20.8°C 73% Calm Calm 13.0 mph20.9 kmh 30.07 in1018.3 mb 0.00 in0.0 mm 0.00 in0.0 mm 0.00 in0.0 mm
01:25 AM 78.9°F26.1°C 69.5°F20.8°C 73% 4.0 mph NE6.4 kmh NE 13.0 mph20.9 kmh 30.06 in1017.9 mb 0.00 in0.0 mm 0.00 in0.0 mm 0.00 in0.0 mm
01:20 AM 78.9°F26.1°C 69.5°F20.8°C 73% 4.0 mph NE6.4 kmh NE 13.0 mph20.9 kmh 30.07 in1018.3 mb 0.00 in0.0 mm 0.00 in0.0 mm 0.00 in0.0 mm
01:15 AM 78.9°F26.1°C 69.9°F21.1°C 74% Calm Calm 13.0 mph20.9 kmh 30.07 in1018.3 mb 0.00 in0.0 mm 0.00 in0.0 mm 0.00 in0.0 mm
01:10 AM 79.0°F26.1°C 70.0°F21.1°C 74% 3.0 mph NE4.8 kmh NE 12.0 mph19.3 kmh 30.07 in1018.3 mb 0.00 in0.0 mm 0.00 in0.0 mm 0.00 in0.0 mm
01:05 AM 79.1°F26.2°C 69.7°F20.9°C 73% 4.0 mph NE6.4 kmh NE 12.0 mph19.3 kmh 30.07 in1018.3 mb 0.00 in0.0 mm 0.00 in0.0 mm 0.00 in0.0 mm
01:00 AM 79.0°F26.1°C 70.0°F21.1°C 74% 11.0 mph NE17.7 kmh NE 11.0 mph17.7 kmh 30.07 in1018.3 mb 0.00 in0.0 mm 0.00 in0.0 mm 0.00 in0.0 mm
12:55 AM 79.1°F26.2°C 70.1°F21.2°C 74% Calm Calm 13.0 mph20.9 kmh 30.07 in1018.3 mb 0.00 in0.0 mm 0.00 in0.0 mm 0.00 in0.0 mm
12:50 AM 79.1°F26.2°C 70.1°F21.2°C 74% 2.0 mph NE3.2 kmh NE 13.0 mph20.9 kmh 30.07 in1018.3 mb 0.00 in0.0 mm 0.00 in0.0 mm 0.00 in0.0 mm
12:45 AM 79.1°F26.2°C 70.1°F21.2°C 74% Calm Calm 13.0 mph20.9 kmh 30.07 in1018.3 mb 0.00 in0.0 mm 0.00 in0.0 mm 0.00 in0.0 mm
12:40 AM 79.1°F26.2°C 70.1°F21.2°C 74% 6.0 mph NE9.7 kmh NE 13.0 mph20.9 kmh 30.07 in1018.3 mb 0.00 in0.0 mm 0.00 in0.0 mm 0.00 in0.0 mm
12:35 AM 79.2°F26.2°C 70.6°F21.4°C 75% 4.0 mph NE6.4 kmh NE 13.0 mph20.9 kmh 30.07 in1018.3 mb 0.00 in0.0 mm 0.00 in0.0 mm 0.00 in0.0 mm
12:30 AM 79.2°F26.2°C 71.0°F21.7°C 76% 3.0 mph NE4.8 kmh NE 13.0 mph20.9 kmh 30.07 in1018.3 mb 0.00 in0.0 mm 0.00 in0.0 mm 0.00 in0.0 mm
12:25 AM 79.2°F26.2°C 71.0°F21.7°C 76% 7.0 mph NE11.3 kmh NE 13.0 mph20.9 kmh 30.07 in1018.3 mb 0.00 in0.0 mm 0.00 in0.0 mm 0.00 in0.0 mm
12:20 AM 79.3°F26.3°C 71.5°F21.9°C 77% 3.0 mph ENE4.8 kmh ENE 13.0 mph20.9 kmh 30.08 in1018.6 mb 0.00 in0.0 mm 0.00 in0.0 mm 0.00 in0.0 mm
12:15 AM 79.2°F26.2°C 71.8°F22.1°C 78% 4.0 mph NE6.4 kmh NE 13.0 mph20.9 kmh 30.08 in1018.6 mb 0.00 in0.0 mm 0.00 in0.0 mm 0.00 in0.0 mm
12:10 AM 79.1°F26.2°C 71.3°F21.8°C 77% 5.0 mph NE8.0 kmh NE 13.0 mph20.9 kmh 30.08 in1018.6 mb 0.00 in0.0 mm 0.00 in0.0 mm 0.00 in0.0 mm
12:05 AM 79.1°F26.2°C 70.9°F21.6°C 76% Calm Calm 8.0 mph12.9 kmh 30.08 in1018.6 mb 0.00 in0.0 mm 0.00 in0.0 mm 0.00 in0.0 mm
12:00 AM 79.1°F26.2°C 70.9°F21.6°C 76% 2.0 mph NE3.2 kmh NE 2.0 mph3.2 kmh 30.08 in1018.6 mb 0.00 in0.0 mm 0.00 in0.0 mm 0.00 in0.0 mm